Listerhav — ZDKC7 — position and weather

sailwx.info

Track history (hours):
 
Tides and Currents Weather Stations Pressure Air Temp Water Temp Dewpoint Dewpoint Depression Visibility Wind Speed Wind Dir Waves Ship Positions

Listerhav

Last reported at 2014-Oct-24 05:30 UTC. Time now 2014-Oct-24 09:41 UTC.
Position N 55°55' E 016°22'.

Length 88 m; draft 4.3 m.

Type: Cargo ship. MMSI: 236591000.

Date/timePositionNaut miles runAvg speedWind from/ knotsBaromVisibWave heightAir tempDewpointWater temp
2014-Oct-24 05:30N 55°55' E 016°22'48 9.4
2014-Oct-24 00:28N 55°32' E 015°08'9 9.6
2014-Oct-23 23:33N 55°28' E 014°54'9 9.4
2014-Oct-23 22:33N 55°23' E 014°40'9 9.4
2014-Oct-23 21:33N 55°16' E 014°28'9 8.9
2014-Oct-23 20:33N 55°12' E 014°15'9 9.2
2014-Oct-23 19:33N 55°11' E 013°59'9 9.0
2014-Oct-23 18:33N 55°12' E 013°43'22 9.0
2014-Oct-23 16:08N 55°13' E 013°05'5 8.8
2014-Oct-23 15:33N 55°14' E 012°56'9 8.7
2014-Oct-23 14:33N 55°17' E 012°42'7 7.2
2014-Oct-23 13:33N 55°24' E 012°39'8 8.3
2014-Oct-23 12:33N 55°32' E 012°42'7 7.2
2014-Oct-23 11:33N 55°39' E 012°41'8 7.9
2014-Oct-23 10:33N 55°47' E 012°41'8 8.0
2014-Oct-23 09:33N 55°55' E 012°39'8 7.8
2014-Oct-23 08:33N 56°03' E 012°38'8 8.1
2014-Oct-23 07:33N 56°08' E 012°27'9 8.8
2014-Oct-23 06:33N 56°12' E 012°13'  
2014-Oct-20 12:33N 56°18' E 012°05'7 7.3
2014-Oct-20 11:33N 56°14' E 012°16'7 6.9
2014-Oct-20 10:33N 56°10' E 012°26'7 6.7
2014-Oct-20 09:33N 56°06' E 012°35'6 5.5
2014-Oct-20 08:33N 56°01' E 012°40'6 6.2
2014-Oct-20 07:33N 55°55' E 012°44'7 7.4
2014-Oct-20 06:34N 55°48' E 012°43'8 7.5
2014-Oct-20 05:34N 55°40' E 012°42'6 5.8
2014-Oct-20 04:34N 55°35' E 012°42'7 7.3
2014-Oct-20 03:33N 55°27' E 012°42'8 8.4
2014-Oct-20 02:33N 55°19' E 012°40'8 7.8
2014-Oct-20 01:32N 55°16' E 012°53'8 7.8
2014-Oct-20 00:34N 55°16' E 013°06'10 7.7
2014-Oct-19 23:17N 55°15' E 013°24'6 7.9
2014-Oct-19 22:33N 55°15' E 013°34'8 8.3
2014-Oct-19 21:33N 55°14' E 013°48'9 8.5
2014-Oct-19 20:33N 55°14' E 014°03'8 8.3
2014-Oct-19 19:33N 55°15' E 014°18'9 8.6
2014-Oct-19 18:33N 55°21' E 014°28'8 8.4
2014-Oct-19 17:33N 55°26' E 014°40'9 8.6
2014-Oct-19 16:33N 55°29' E 014°54'8 8.4
2014-Oct-19 15:33N 55°31' E 015°08'8 8.4
2014-Oct-19 14:33N 55°34' E 015°23'  
2014-Oct-16 20:33N 55°29' E 015°12'10 9.2
2014-Oct-16 19:29N 55°26' E 014°56'9 9.1
2014-Oct-16 18:31N 55°23' E 014°41'9 9.0
2014-Oct-16 17:32N 55°17' E 014°29'9 8.9
2014-Oct-16 16:33N 55°12' E 014°17'39 9.1
2014-Oct-16 12:18N 55°13' E 013°10'7 9.2
2014-Oct-16 11:33N 55°14' E 012°58'9 9.3
2014-Oct-16 10:33N 55°17' E 012°42'8 7.9
2014-Oct-16 09:33N 55°25' E 012°39'8 8.4
2014-Oct-16 08:33N 55°33' E 012°42'8 7.8
2014-Oct-16 07:33N 55°41' E 012°41'8 7.5
2014-Oct-16 06:33N 55°48' E 012°40'8 8.4
2014-Oct-16 05:33N 55°56' E 012°38'7 7.2
2014-Oct-16 04:33N 56°04' E 012°38'6 5.6
2014-Oct-16 03:33N 56°07' E 012°30'8 7.8
2014-Oct-16 02:33N 56°11' E 012°18'9 8.9
2014-Oct-16 01:33N 56°15' E 012°04'  
Track history (hours):
 
Tides and Currents Weather Stations Pressure Air Temp Water Temp Dewpoint Dewpoint Depression Visibility Wind Speed Wind Dir Waves Ship Positions

Listerhav

Last reported at 2014-Oct-24 05:30 UTC. Time now 2014-Oct-24 09:41 UTC.
Position N 55°55' E 016°22'.

Length 88 m; draft 4.3 m.

Type: Cargo ship. MMSI: 236591000.

Date/timePositionNaut miles runAvg speedWind from/ knotsBaromVisibWave heightAir tempDewpointWater temp
2014-Oct-24 05:30N 55°55' E 016°22'48 9.4
2014-Oct-24 00:28N 55°32' E 015°08'9 9.6
2014-Oct-23 23:33N 55°28' E 014°54'9 9.4
2014-Oct-23 22:33N 55°23' E 014°40'9 9.4
2014-Oct-23 21:33N 55°16' E 014°28'9 8.9
2014-Oct-23 20:33N 55°12' E 014°15'9 9.2
2014-Oct-23 19:33N 55°11' E 013°59'9 9.0
2014-Oct-23 18:33N 55°12' E 013°43'22 9.0
2014-Oct-23 16:08N 55°13' E 013°05'5 8.8
2014-Oct-23 15:33N 55°14' E 012°56'9 8.7
2014-Oct-23 14:33N 55°17' E 012°42'7 7.2
2014-Oct-23 13:33N 55°24' E 012°39'8 8.3
2014-Oct-23 12:33N 55°32' E 012°42'7 7.2
2014-Oct-23 11:33N 55°39' E 012°41'8 7.9
2014-Oct-23 10:33N 55°47' E 012°41'8 8.0
2014-Oct-23 09:33N 55°55' E 012°39'8 7.8
2014-Oct-23 08:33N 56°03' E 012°38'8 8.1
2014-Oct-23 07:33N 56°08' E 012°27'9 8.8
2014-Oct-23 06:33N 56°12' E 012°13'  
2014-Oct-20 12:33N 56°18' E 012°05'7 7.3
2014-Oct-20 11:33N 56°14' E 012°16'7 6.9
2014-Oct-20 10:33N 56°10' E 012°26'7 6.7
2014-Oct-20 09:33N 56°06' E 012°35'6 5.5
2014-Oct-20 08:33N 56°01' E 012°40'6 6.2
2014-Oct-20 07:33N 55°55' E 012°44'7 7.4
2014-Oct-20 06:34N 55°48' E 012°43'8 7.5
2014-Oct-20 05:34N 55°40' E 012°42'6 5.8
2014-Oct-20 04:34N 55°35' E 012°42'7 7.3
2014-Oct-20 03:33N 55°27' E 012°42'8 8.4
2014-Oct-20 02:33N 55°19' E 012°40'8 7.8
2014-Oct-20 01:32N 55°16' E 012°53'8 7.8
2014-Oct-20 00:34N 55°16' E 013°06'10 7.7
2014-Oct-19 23:17N 55°15' E 013°24'6 7.9
2014-Oct-19 22:33N 55°15' E 013°34'8 8.3
2014-Oct-19 21:33N 55°14' E 013°48'9 8.5
2014-Oct-19 20:33N 55°14' E 014°03'8 8.3
2014-Oct-19 19:33N 55°15' E 014°18'9 8.6
2014-Oct-19 18:33N 55°21' E 014°28'8 8.4
2014-Oct-19 17:33N 55°26' E 014°40'9 8.6
2014-Oct-19 16:33N 55°29' E 014°54'8 8.4
2014-Oct-19 15:33N 55°31' E 015°08'8 8.4
2014-Oct-19 14:33N 55°34' E 015°23'  
2014-Oct-16 20:33N 55°29' E 015°12'10 9.2
2014-Oct-16 19:29N 55°26' E 014°56'9 9.1
2014-Oct-16 18:31N 55°23' E 014°41'9 9.0
2014-Oct-16 17:32N 55°17' E 014°29'9 8.9
2014-Oct-16 16:33N 55°12' E 014°17'39 9.1
2014-Oct-16 12:18N 55°13' E 013°10'7 9.2
2014-Oct-16 11:33N 55°14' E 012°58'9 9.3
2014-Oct-16 10:33N 55°17' E 012°42'8 7.9
2014-Oct-16 09:33N 55°25' E 012°39'8 8.4
2014-Oct-16 08:33N 55°33' E 012°42'8 7.8
2014-Oct-16 07:33N 55°41' E 012°41'8 7.5
2014-Oct-16 06:33N 55°48' E 012°40'8 8.4
2014-Oct-16 05:33N 55°56' E 012°38'7 7.2
2014-Oct-16 04:33N 56°04' E 012°38'6 5.6
2014-Oct-16 03:33N 56°07' E 012°30'8 7.8
2014-Oct-16 02:33N 56°11' E 012°18'9 8.9
2014-Oct-16 01:33N 56°15' E 012°04'  

Dump ship's entire track history